sensor_id;sensor_type;location;lat;lon;timestamp;temperature;humidity
14119;DHT22;7138;49.246;9.100;2023-04-03T00:01:20;2.70;99.90
14119;DHT22;7138;49.246;9.100;2023-04-03T00:03:46;2.60;99.90
14119;DHT22;7138;49.246;9.100;2023-04-03T00:06:13;2.60;99.90
14119;DHT22;7138;49.246;9.100;2023-04-03T00:08:39;2.50;99.90
14119;DHT22;7138;49.246;9.100;2023-04-03T00:11:06;2.60;99.90
14119;DHT22;7138;49.246;9.100;2023-04-03T00:13:33;2.60;99.90
14119;DHT22;7138;49.246;9.100;2023-04-03T00:15:59;2.70;99.90
14119;DHT22;7138;49.246;9.100;2023-04-03T00:18:26;2.70;99.90
14119;DHT22;7138;49.246;9.100;2023-04-03T00:20:52;2.80;99.90
14119;DHT22;7138;49.246;9.100;2023-04-03T00:23:18;2.80;99.90
14119;DHT22;7138;49.246;9.100;2023-04-03T00:25:44;2.80;99.90
14119;DHT22;7138;49.246;9.100;2023-04-03T00:28:10;2.80;99.90
14119;DHT22;7138;49.246;9.100;2023-04-03T00:30:37;2.90;99.90
14119;DHT22;7138;49.246;9.100;2023-04-03T00:33:02;2.90;99.90
14119;DHT22;7138;49.246;9.100;2023-04-03T00:35:30;2.90;99.90
14119;DHT22;7138;49.246;9.100;2023-04-03T00:37:56;2.90;99.90
14119;DHT22;7138;49.246;9.100;2023-04-03T00:40:23;2.90;99.90
14119;DHT22;7138;49.246;9.100;2023-04-03T00:42:56;2.90;99.90
14119;DHT22;7138;49.246;9.100;2023-04-03T00:45:32;2.80;99.90
14119;DHT22;7138;49.246;9.100;2023-04-03T00:48:01;2.80;99.90
14119;DHT22;7138;49.246;9.100;2023-04-03T00:50:34;2.80;99.90
14119;DHT22;7138;49.246;9.100;2023-04-03T00:53:04;2.80;99.90
14119;DHT22;7138;49.246;9.100;2023-04-03T00:55:31;2.70;99.90
14119;DHT22;7138;49.246;9.100;2023-04-03T00:58:00;2.70;99.90
14119;DHT22;7138;49.246;9.100;2023-04-03T01:00:27;2.70;99.90
14119;DHT22;7138;49.246;9.100;2023-04-03T01:02:53;2.70;99.90
14119;DHT22;7138;49.246;9.100;2023-04-03T01:05:20;2.60;99.90
14119;DHT22;7138;49.246;9.100;2023-04-03T01:07:49;2.60;99.90
14119;DHT22;7138;49.246;9.100;2023-04-03T01:10:17;2.60;99.90
14119;DHT22;7138;49.246;9.100;2023-04-03T01:12:47;2.60;99.90
14119;DHT22;7138;49.246;9.100;2023-04-03T01:15:18;2.60;99.90
14119;DHT22;7138;49.246;9.100;2023-04-03T01:17:47;2.70;99.90
14119;DHT22;7138;49.246;9.100;2023-04-03T01:23:57;2.80;99.90
14119;DHT22;7138;49.246;9.100;2023-04-03T01:26:31;2.80;99.90
14119;DHT22;7138;49.246;9.100;2023-04-03T01:28:59;2.80;99.90
14119;DHT22;7138;49.246;9.100;2023-04-03T01:31:28;2.80;99.90
14119;DHT22;7138;49.246;9.100;2023-04-03T01:34:00;2.80;99.90
14119;DHT22;7138;49.246;9.100;2023-04-03T01:36:28;2.90;99.90
14119;DHT22;7138;49.246;9.100;2023-04-03T01:38:56;2.80;99.90
14119;DHT22;7138;49.246;9.100;2023-04-03T01:41:23;2.80;99.90
14119;DHT22;7138;49.246;9.100;2023-04-03T01:43:49;2.80;99.90
14119;DHT22;7138;49.246;9.100;2023-04-03T01:46:15;2.80;99.90
14119;DHT22;7138;49.246;9.100;2023-04-03T01:48:42;2.80;99.90
14119;DHT22;7138;49.246;9.100;2023-04-03T01:51:09;2.80;99.90
14119;DHT22;7138;49.246;9.100;2023-04-03T01:53:35;2.70;99.90
14119;DHT22;7138;49.246;9.100;2023-04-03T01:56:01;2.70;99.90
14119;DHT22;7138;49.246;9.100;2023-04-03T01:58:27;2.70;99.90
14119;DHT22;7138;49.246;9.100;2023-04-03T02:00:53;2.70;99.90
14119;DHT22;7138;49.246;9.100;2023-04-03T02:03:19;2.70;99.90
14119;DHT22;7138;49.246;9.100;2023-04-03T02:05:46;2.70;99.90
14119;DHT22;7138;49.246;9.100;2023-04-03T02:08:13;2.70;99.90
14119;DHT22;7138;49.246;9.100;2023-04-03T02:10:40;2.70;99.90
14119;DHT22;7138;49.246;9.100;2023-04-03T02:13:06;2.70;99.90
14119;DHT22;7138;49.246;9.100;2023-04-03T02:15:31;2.70;99.90
14119;DHT22;7138;49.246;9.100;2023-04-03T02:17:57;2.70;99.90
14119;DHT22;7138;49.246;9.100;2023-04-03T02:20:23;2.70;99.90
14119;DHT22;7138;49.246;9.100;2023-04-03T02:22:49;2.70;99.90
14119;DHT22;7138;49.246;9.100;2023-04-03T02:25:16;2.70;99.90
14119;DHT22;7138;49.246;9.100;2023-04-03T02:27:43;2.70;99.90
14119;DHT22;7138;49.246;9.100;2023-04-03T02:30:09;2.70;99.90
14119;DHT22;7138;49.246;9.100;2023-04-03T02:32:36;2.70;99.90
14119;DHT22;7138;49.246;9.100;2023-04-03T02:35:02;2.70;99.90
14119;DHT22;7138;49.246;9.100;2023-04-03T02:37:28;2.70;99.90
14119;DHT22;7138;49.246;9.100;2023-04-03T02:39:54;2.70;99.90
14119;DHT22;7138;49.246;9.100;2023-04-03T02:42:21;2.80;99.90
14119;DHT22;7138;49.246;9.100;2023-04-03T02:44:47;2.80;99.90
14119;DHT22;7138;49.246;9.100;2023-04-03T02:47:13;2.80;99.90
14119;DHT22;7138;49.246;9.100;2023-04-03T02:49:42;2.80;99.90
14119;DHT22;7138;49.246;9.100;2023-04-03T02:52:10;2.80;99.90
14119;DHT22;7138;49.246;9.100;2023-04-03T02:54:36;2.80;99.90
14119;DHT22;7138;49.246;9.100;2023-04-03T02:57:02;2.80;99.90
14119;DHT22;7138;49.246;9.100;2023-04-03T02:59:29;2.80;99.90
14119;DHT22;7138;49.246;9.100;2023-04-03T03:01:55;2.80;99.90
14119;DHT22;7138;49.246;9.100;2023-04-03T03:04:22;2.80;99.90
14119;DHT22;7138;49.246;9.100;2023-04-03T03:06:48;2.70;99.90
14119;DHT22;7138;49.246;9.100;2023-04-03T03:09:14;2.70;99.90
14119;DHT22;7138;49.246;9.100;2023-04-03T03:11:40;2.50;99.90
14119;DHT22;7138;49.246;9.100;2023-04-03T03:14:06;2.50;99.90
14119;DHT22;7138;49.246;9.100;2023-04-03T03:16:33;2.40;99.90
14119;DHT22;7138;49.246;9.100;2023-04-03T03:18:59;2.20;99.90
14119;DHT22;7138;49.246;9.100;2023-04-03T03:21:25;2.10;99.90
14119;DHT22;7138;49.246;9.100;2023-04-03T03:23:51;1.90;99.90
14119;DHT22;7138;49.246;9.100;2023-04-03T03:26:17;1.70;99.90
14119;DHT22;7138;49.246;9.100;2023-04-03T03:28:43;1.70;99.90
14119;DHT22;7138;49.246;9.100;2023-04-03T03:31:09;1.60;99.90
14119;DHT22;7138;49.246;9.100;2023-04-03T03:33:37;1.40;99.90
14119;DHT22;7138;49.246;9.100;2023-04-03T03:36:04;1.30;99.90
14119;DHT22;7138;49.246;9.100;2023-04-03T03:38:30;1.30;99.90
14119;DHT22;7138;49.246;9.100;2023-04-03T03:40:56;1.20;99.90
14119;DHT22;7138;49.246;9.100;2023-04-03T03:43:22;1.30;99.90
14119;DHT22;7138;49.246;9.100;2023-04-03T03:45:50;1.30;99.90
14119;DHT22;7138;49.246;9.100;2023-04-03T03:48:17;1.20;99.90
14119;DHT22;7138;49.246;9.100;2023-04-03T03:50:44;1.30;99.90
14119;DHT22;7138;49.246;9.100;2023-04-03T03:53:10;1.20;99.90
14119;DHT22;7138;49.246;9.100;2023-04-03T03:55:36;1.10;99.90
14119;DHT22;7138;49.246;9.100;2023-04-03T03:58:02;1.00;99.90
14119;DHT22;7138;49.246;9.100;2023-04-03T04:00:29;1.00;99.90
14119;DHT22;7138;49.246;9.100;2023-04-03T04:02:55;1.00;99.90
14119;DHT22;7138;49.246;9.100;2023-04-03T04:05:21;1.00;99.90
14119;DHT22;7138;49.246;9.100;2023-04-03T04:07:49;0.90;99.90
14119;DHT22;7138;49.246;9.100;2023-04-03T04:10:15;0.90;99.90
14119;DHT22;7138;49.246;9.100;2023-04-03T04:12:41;0.80;99.90
14119;DHT22;7138;49.246;9.100;2023-04-03T04:15:08;0.80;99.90
14119;DHT22;7138;49.246;9.100;2023-04-03T04:17:34;0.80;99.90
14119;DHT22;7138;49.246;9.100;2023-04-03T04:20:00;0.80;99.90
14119;DHT22;7138;49.246;9.100;2023-04-03T04:22:26;0.80;99.90
14119;DHT22;7138;49.246;9.100;2023-04-03T04:24:53;0.80;99.90
14119;DHT22;7138;49.246;9.100;2023-04-03T04:27:19;0.70;99.90
14119;DHT22;7138;49.246;9.100;2023-04-03T04:29:45;0.80;99.90
14119;DHT22;7138;49.246;9.100;2023-04-03T04:32:11;0.80;99.90
14119;DHT22;7138;49.246;9.100;2023-04-03T04:34:37;0.80;99.90
14119;DHT22;7138;49.246;9.100;2023-04-03T04:37:02;0.70;99.90
14119;DHT22;7138;49.246;9.100;2023-04-03T04:39:28;0.70;99.90
14119;DHT22;7138;49.246;9.100;2023-04-03T04:41:56;0.60;99.90
14119;DHT22;7138;49.246;9.100;2023-04-03T04:44:22;0.50;99.90
14119;DHT22;7138;49.246;9.100;2023-04-03T04:46:47;0.50;99.90
14119;DHT22;7138;49.246;9.100;2023-04-03T04:49:13;0.50;99.90
14119;DHT22;7138;49.246;9.100;2023-04-03T04:51:39;0.50;99.90
14119;DHT22;7138;49.246;9.100;2023-04-03T04:54:05;0.50;99.90
14119;DHT22;7138;49.246;9.100;2023-04-03T04:56:31;0.60;99.90
14119;DHT22;7138;49.246;9.100;2023-04-03T04:58:58;0.60;99.90
14119;DHT22;7138;49.246;9.100;2023-04-03T05:01:24;0.60;99.90
14119;DHT22;7138;49.246;9.100;2023-04-03T05:03:50;0.70;99.90
14119;DHT22;7138;49.246;9.100;2023-04-03T05:06:16;0.60;99.90
14119;DHT22;7138;49.246;9.100;2023-04-03T05:08:42;0.60;99.90
14119;DHT22;7138;49.246;9.100;2023-04-03T05:11:08;0.50;99.90
14119;DHT22;7138;49.246;9.100;2023-04-03T05:13:34;0.50;99.90
14119;DHT22;7138;49.246;9.100;2023-04-03T05:16:01;0.60;99.90
14119;DHT22;7138;49.246;9.100;2023-04-03T05:18:27;0.90;99.90
14119;DHT22;7138;49.246;9.100;2023-04-03T05:20:52;1.10;99.90
14119;DHT22;7138;49.246;9.100;2023-04-03T05:23:18;1.20;99.90
14119;DHT22;7138;49.246;9.100;2023-04-03T05:25:44;1.30;99.90
14119;DHT22;7138;49.246;9.100;2023-04-03T05:28:12;1.40;99.90
14119;DHT22;7138;49.246;9.100;2023-04-03T05:30:38;1.60;99.90
14119;DHT22;7138;49.246;9.100;2023-04-03T05:33:05;2.00;99.90
14119;DHT22;7138;49.246;9.100;2023-04-03T05:35:31;2.30;99.90
14119;DHT22;7138;49.246;9.100;2023-04-03T05:37:57;2.20;99.90
14119;DHT22;7138;49.246;9.100;2023-04-03T05:40:23;2.30;99.90
14119;DHT22;7138;49.246;9.100;2023-04-03T05:42:48;2.90;99.90
14119;DHT22;7138;49.246;9.100;2023-04-03T05:45:15;3.10;99.90
14119;DHT22;7138;49.246;9.100;2023-04-03T05:47:40;3.80;99.90
14119;DHT22;7138;49.246;9.100;2023-04-03T05:50:08;4.60;99.90
14119;DHT22;7138;49.246;9.100;2023-04-03T05:52:37;4.70;99.90
14119;DHT22;7138;49.246;9.100;2023-04-03T05:55:06;5.30;99.90
14119;DHT22;7138;49.246;9.100;2023-04-03T05:57:32;5.70;99.90
14119;DHT22;7138;49.246;9.100;2023-04-03T05:59:58;6.30;99.90
14119;DHT22;7138;49.246;9.100;2023-04-03T06:02:24;6.40;99.90
14119;DHT22;7138;49.246;9.100;2023-04-03T06:04:51;6.50;99.90
14119;DHT22;7138;49.246;9.100;2023-04-03T06:07:20;6.20;99.90
14119;DHT22;7138;49.246;9.100;2023-04-03T06:09:49;5.50;99.90
14119;DHT22;7138;49.246;9.100;2023-04-03T06:12:16;5.50;99.90
14119;DHT22;7138;49.246;9.100;2023-04-03T06:14:42;5.70;99.90
14119;DHT22;7138;49.246;9.100;2023-04-03T06:17:08;5.70;99.90
14119;DHT22;7138;49.246;9.100;2023-04-03T06:19:35;6.00;99.90
14119;DHT22;7138;49.246;9.100;2023-04-03T06:22:01;6.00;99.90
14119;DHT22;7138;49.246;9.100;2023-04-03T06:24:30;6.40;99.90
14119;DHT22;7138;49.246;9.100;2023-04-03T06:26:57;6.70;99.90
14119;DHT22;7138;49.246;9.100;2023-04-03T06:29:24;5.90;99.90
14119;DHT22;7138;49.246;9.100;2023-04-03T06:31:50;6.40;99.90
14119;DHT22;7138;49.246;9.100;2023-04-03T06:34:17;6.40;99.90
14119;DHT22;7138;49.246;9.100;2023-04-03T06:36:44;6.60;99.90
14119;DHT22;7138;49.246;9.100;2023-04-03T06:39:13;6.40;99.90
14119;DHT22;7138;49.246;9.100;2023-04-03T06:41:43;6.40;99.90
14119;DHT22;7138;49.246;9.100;2023-04-03T06:44:10;6.00;99.90
14119;DHT22;7138;49.246;9.100;2023-04-03T06:46:38;6.00;99.90
14119;DHT22;7138;49.246;9.100;2023-04-03T06:49:04;5.30;99.90
14119;DHT22;7138;49.246;9.100;2023-04-03T06:51:33;5.40;99.90
14119;DHT22;7138;49.246;9.100;2023-04-03T06:54:00;5.70;99.90
14119;DHT22;7138;49.246;9.100;2023-04-03T06:56:28;5.90;99.90
14119;DHT22;7138;49.246;9.100;2023-04-03T06:58:56;5.60;99.90
14119;DHT22;7138;49.246;9.100;2023-04-03T07:01:24;5.40;99.90
14119;DHT22;7138;49.246;9.100;2023-04-03T07:03:51;5.30;99.90
14119;DHT22;7138;49.246;9.100;2023-04-03T07:06:18;5.60;99.90
14119;DHT22;7138;49.246;9.100;2023-04-03T07:08:46;5.10;99.90
14119;DHT22;7138;49.246;9.100;2023-04-03T07:11:14;5.40;99.90
14119;DHT22;7138;49.246;9.100;2023-04-03T07:13:41;5.60;99.90
14119;DHT22;7138;49.246;9.100;2023-04-03T07:16:09;5.50;99.90
14119;DHT22;7138;49.246;9.100;2023-04-03T07:18:35;5.70;99.90
14119;DHT22;7138;49.246;9.100;2023-04-03T07:21:02;5.80;99.90
14119;DHT22;7138;49.246;9.100;2023-04-03T07:23:28;6.40;99.90
14119;DHT22;7138;49.246;9.100;2023-04-03T07:25:54;5.90;99.90
14119;DHT22;7138;49.246;9.100;2023-04-03T07:28:21;5.90;99.90
14119;DHT22;7138;49.246;9.100;2023-04-03T07:30:49;6.40;99.90
14119;DHT22;7138;49.246;9.100;2023-04-03T07:33:19;6.60;99.90
14119;DHT22;7138;49.246;9.100;2023-04-03T07:35:46;6.40;99.90
14119;DHT22;7138;49.246;9.100;2023-04-03T07:38:12;6.00;99.90
14119;DHT22;7138;49.246;9.100;2023-04-03T07:40:39;6.50;99.90
14119;DHT22;7138;49.246;9.100;2023-04-03T07:43:05;6.60;99.90
14119;DHT22;7138;49.246;9.100;2023-04-03T07:45:34;6.30;99.90
14119;DHT22;7138;49.246;9.100;2023-04-03T07:48:01;6.10;99.90
14119;DHT22;7138;49.246;9.100;2023-04-03T07:50:28;6.60;99.90
14119;DHT22;7138;49.246;9.100;2023-04-03T07:52:55;6.40;99.90
14119;DHT22;7138;49.246;9.100;2023-04-03T07:55:23;6.40;99.90
14119;DHT22;7138;49.246;9.100;2023-04-03T07:57:49;7.00;99.90
14119;DHT22;7138;49.246;9.100;2023-04-03T08:00:15;6.50;99.90
14119;DHT22;7138;49.246;9.100;2023-04-03T08:02:43;7.00;99.90
14119;DHT22;7138;49.246;9.100;2023-04-03T08:05:10;6.60;99.90
14119;DHT22;7138;49.246;9.100;2023-04-03T08:07:38;6.60;99.90
14119;DHT22;7138;49.246;9.100;2023-04-03T08:10:04;7.10;99.90
14119;DHT22;7138;49.246;9.100;2023-04-03T08:12:31;6.60;99.90
14119;DHT22;7138;49.246;9.100;2023-04-03T08:14:57;6.60;99.90
14119;DHT22;7138;49.246;9.100;2023-04-03T08:17:26;7.10;99.90
14119;DHT22;7138;49.246;9.100;2023-04-03T08:19:52;7.10;99.90
14119;DHT22;7138;49.246;9.100;2023-04-03T08:22:18;6.90;99.90
14119;DHT22;7138;49.246;9.100;2023-04-03T08:24:45;6.70;99.90
14119;DHT22;7138;49.246;9.100;2023-04-03T08:27:11;6.70;99.90
14119;DHT22;7138;49.246;9.100;2023-04-03T08:29:37;6.50;99.90
14119;DHT22;7138;49.246;9.100;2023-04-03T08:32:03;5.50;99.90
14119;DHT22;7138;49.246;9.100;2023-04-03T08:34:29;5.30;99.90
14119;DHT22;7138;49.246;9.100;2023-04-03T08:36:55;5.30;99.90
14119;DHT22;7138;49.246;9.100;2023-04-03T08:39:21;5.60;99.90
14119;DHT22;7138;49.246;9.100;2023-04-03T08:41:48;5.10;99.90
14119;DHT22;7138;49.246;9.100;2023-04-03T08:44:19;6.10;99.90
14119;DHT22;7138;49.246;9.100;2023-04-03T08:47:02;7.30;99.90
14119;DHT22;7138;49.246;9.100;2023-04-03T08:49:40;8.30;99.90
14119;DHT22;7138;49.246;9.100;2023-04-03T08:52:18;7.90;99.90
14119;DHT22;7138;49.246;9.100;2023-04-03T08:54:51;8.00;99.90
14119;DHT22;7138;49.246;9.100;2023-04-03T08:57:26;8.10;99.90
14119;DHT22;7138;49.246;9.100;2023-04-03T08:59:56;8.40;99.90
14119;DHT22;7138;49.246;9.100;2023-04-03T09:02:28;8.10;99.90
14119;DHT22;7138;49.246;9.100;2023-04-03T09:04:59;7.90;99.90
14119;DHT22;7138;49.246;9.100;2023-04-03T09:07:35;8.10;99.90
14119;DHT22;7138;49.246;9.100;2023-04-03T09:10:05;7.70;99.90
14119;DHT22;7138;49.246;9.100;2023-04-03T09:12:37;7.10;99.90
14119;DHT22;7138;49.246;9.100;2023-04-03T09:15:14;6.80;99.90
14119;DHT22;7138;49.246;9.100;2023-04-03T09:17:53;7.20;99.90
14119;DHT22;7138;49.246;9.100;2023-04-03T09:20:29;7.10;99.90
14119;DHT22;7138;49.246;9.100;2023-04-03T09:23:08;7.30;99.90
14119;DHT22;7138;49.246;9.100;2023-04-03T09:25:43;8.10;99.90
14119;DHT22;7138;49.246;9.100;2023-04-03T09:28:10;8.20;99.90
14119;DHT22;7138;49.246;9.100;2023-04-03T09:30:37;7.60;99.90
14119;DHT22;7138;49.246;9.100;2023-04-03T09:33:04;7.60;99.90
14119;DHT22;7138;49.246;9.100;2023-04-03T09:35:32;8.10;99.90
14119;DHT22;7138;49.246;9.100;2023-04-03T09:38:01;8.60;99.90
14119;DHT22;7138;49.246;9.100;2023-04-03T09:40:41;8.70;99.90
14119;DHT22;7138;49.246;9.100;2023-04-03T09:43:31;8.70;99.90
14119;DHT22;7138;49.246;9.100;2023-04-03T09:46:23;9.40;99.90
14119;DHT22;7138;49.246;9.100;2023-04-03T09:48:56;7.90;99.90
14119;DHT22;7138;49.246;9.100;2023-04-03T09:51:25;7.60;99.90
14119;DHT22;7138;49.246;9.100;2023-04-03T09:53:53;7.40;99.90
14119;DHT22;7138;49.246;9.100;2023-04-03T09:56:22;7.10;99.90
14119;DHT22;7138;49.246;9.100;2023-04-03T09:59:07;7.20;99.90
14119;DHT22;7138;49.246;9.100;2023-04-03T10:01:42;7.00;99.90
14119;DHT22;7138;49.246;9.100;2023-04-03T10:04:13;6.90;99.90
14119;DHT22;7138;49.246;9.100;2023-04-03T10:06:43;6.60;99.90
14119;DHT22;7138;49.246;9.100;2023-04-03T10:09:18;6.90;99.90
14119;DHT22;7138;49.246;9.100;2023-04-03T10:12:00;7.40;99.90
14119;DHT22;7138;49.246;9.100;2023-04-03T10:14:33;7.50;99.90
14119;DHT22;7138;49.246;9.100;2023-04-03T10:17:13;7.70;99.90
14119;DHT22;7138;49.246;9.100;2023-04-03T10:19:47;7.70;99.90
14119;DHT22;7138;49.246;9.100;2023-04-03T10:22:22;7.70;99.90
14119;DHT22;7138;49.246;9.100;2023-04-03T10:25:04;7.90;99.90
14119;DHT22;7138;49.246;9.100;2023-04-03T10:27:48;8.10;99.90
14119;DHT22;7138;49.246;9.100;2023-04-03T10:30:29;8.60;99.90
14119;DHT22;7138;49.246;9.100;2023-04-03T10:33:11;8.30;99.90
14119;DHT22;7138;49.246;9.100;2023-04-03T10:35:54;8.30;99.90
14119;DHT22;7138;49.246;9.100;2023-04-03T10:38:42;8.70;99.90
14119;DHT22;7138;49.246;9.100;2023-04-03T10:41:18;8.50;99.90
14119;DHT22;7138;49.246;9.100;2023-04-03T10:43:56;8.10;99.90
14119;DHT22;7138;49.246;9.100;2023-04-03T10:46:36;8.00;99.90
14119;DHT22;7138;49.246;9.100;2023-04-03T10:49:18;7.90;99.90
14119;DHT22;7138;49.246;9.100;2023-04-03T10:51:59;8.10;99.90
14119;DHT22;7138;49.246;9.100;2023-04-03T10:54:35;7.90;99.90
14119;DHT22;7138;49.246;9.100;2023-04-03T10:57:07;7.90;99.90
14119;DHT22;7138;49.246;9.100;2023-04-03T10:59:37;8.00;99.90
14119;DHT22;7138;49.246;9.100;2023-04-03T11:02:16;8.10;99.90
14119;DHT22;7138;49.246;9.100;2023-04-03T11:04:50;8.20;99.90
14119;DHT22;7138;49.246;9.100;2023-04-03T11:07:21;7.70;99.90
14119;DHT22;7138;49.246;9.100;2023-04-03T11:09:52;7.80;99.90
14119;DHT22;7138;49.246;9.100;2023-04-03T11:12:26;8.00;99.90
14119;DHT22;7138;49.246;9.100;2023-04-03T11:14:58;7.30;99.90
14119;DHT22;7138;49.246;9.100;2023-04-03T11:17:35;6.90;99.90
14119;DHT22;7138;49.246;9.100;2023-04-03T11:20:10;6.90;99.90
14119;DHT22;7138;49.246;9.100;2023-04-03T11:22:43;7.00;99.90
14119;DHT22;7138;49.246;9.100;2023-04-03T11:25:17;7.20;99.90
14119;DHT22;7138;49.246;9.100;2023-04-03T11:27:51;6.80;99.90
14119;DHT22;7138;49.246;9.100;2023-04-03T11:30:23;7.20;99.90
14119;DHT22;7138;49.246;9.100;2023-04-03T11:33:19;7.30;99.90
14119;DHT22;7138;49.246;9.100;2023-04-03T11:35:52;7.00;99.90
14119;DHT22;7138;49.246;9.100;2023-04-03T11:38:26;7.20;99.90
14119;DHT22;7138;49.246;9.100;2023-04-03T11:40:56;7.10;99.90
14119;DHT22;7138;49.246;9.100;2023-04-03T11:43:25;7.00;99.90
14119;DHT22;7138;49.246;9.100;2023-04-03T11:45:54;7.50;99.90
14119;DHT22;7138;49.246;9.100;2023-04-03T11:48:52;7.70;99.90
14119;DHT22;7138;49.246;9.100;2023-04-03T11:51:41;8.10;99.90
14119;DHT22;7138;49.246;9.100;2023-04-03T11:54:43;7.60;99.90
14119;DHT22;7138;49.246;9.100;2023-04-03T12:00:50;8.10;99.90
14119;DHT22;7138;49.246;9.100;2023-04-03T12:04:04;7.90;99.90
14119;DHT22;7138;49.246;9.100;2023-04-03T12:06:53;7.90;99.90
14119;DHT22;7138;49.246;9.100;2023-04-03T12:09:33;8.30;99.90
14119;DHT22;7138;49.246;9.100;2023-04-03T12:12:34;9.10;99.90
14119;DHT22;7138;49.246;9.100;2023-04-03T12:21:24;7.80;99.90
14119;DHT22;7138;49.246;9.100;2023-04-03T12:24:32;7.60;99.90
14119;DHT22;7138;49.246;9.100;2023-04-03T12:27:05;7.70;99.90
14119;DHT22;7138;49.246;9.100;2023-04-03T12:29:46;7.50;99.90
14119;DHT22;7138;49.246;9.100;2023-04-03T12:32:26;8.20;99.90
14119;DHT22;7138;49.246;9.100;2023-04-03T12:35:17;8.80;99.90
14119;DHT22;7138;49.246;9.100;2023-04-03T12:38:01;8.20;99.90
14119;DHT22;7138;49.246;9.100;2023-04-03T12:40:50;7.70;99.90
14119;DHT22;7138;49.246;9.100;2023-04-03T12:43:32;7.50;99.90
14119;DHT22;7138;49.246;9.100;2023-04-03T12:46:12;7.60;99.90
14119;DHT22;7138;49.246;9.100;2023-04-03T12:48:49;7.40;99.90
14119;DHT22;7138;49.246;9.100;2023-04-03T12:51:19;7.50;99.90
14119;DHT22;7138;49.246;9.100;2023-04-03T12:53:49;7.30;99.90
14119;DHT22;7138;49.246;9.100;2023-04-03T12:56:29;7.20;99.90
14119;DHT22;7138;49.246;9.100;2023-04-03T12:59:14;7.30;99.90
14119;DHT22;7138;49.246;9.100;2023-04-03T13:01:42;7.20;99.90
14119;DHT22;7138;49.246;9.100;2023-04-03T13:04:10;7.40;99.90
14119;DHT22;7138;49.246;9.100;2023-04-03T13:06:39;7.30;99.90
14119;DHT22;7138;49.246;9.100;2023-04-03T13:09:19;7.30;99.90
14119;DHT22;7138;49.246;9.100;2023-04-03T13:11:50;7.30;99.90
14119;DHT22;7138;49.246;9.100;2023-04-03T13:14:22;7.80;99.90
14119;DHT22;7138;49.246;9.100;2023-04-03T13:16:54;8.90;99.90
14119;DHT22;7138;49.246;9.100;2023-04-03T13:19:23;8.70;99.90
14119;DHT22;7138;49.246;9.100;2023-04-03T13:21:57;8.20;99.90
14119;DHT22;7138;49.246;9.100;2023-04-03T13:24:28;7.60;99.90
14119;DHT22;7138;49.246;9.100;2023-04-03T13:26:57;7.60;99.90
14119;DHT22;7138;49.246;9.100;2023-04-03T13:29:26;7.70;99.90
14119;DHT22;7138;49.246;9.100;2023-04-03T13:31:55;7.60;99.90
14119;DHT22;7138;49.246;9.100;2023-04-03T13:34:23;8.50;99.90
14119;DHT22;7138;49.246;9.100;2023-04-03T13:36:58;8.80;99.90
14119;DHT22;7138;49.246;9.100;2023-04-03T13:39:27;7.70;99.90
14119;DHT22;7138;49.246;9.100;2023-04-03T13:41:57;7.90;99.90
14119;DHT22;7138;49.246;9.100;2023-04-03T13:44:31;8.20;99.90
14119;DHT22;7138;49.246;9.100;2023-04-03T13:47:01;8.90;99.90
14119;DHT22;7138;49.246;9.100;2023-04-03T13:49:43;8.40;99.90
14119;DHT22;7138;49.246;9.100;2023-04-03T13:52:23;8.20;99.90
14119;DHT22;7138;49.246;9.100;2023-04-03T13:54:54;7.90;99.90
14119;DHT22;7138;49.246;9.100;2023-04-03T13:57:23;8.10;99.90
14119;DHT22;7138;49.246;9.100;2023-04-03T13:59:49;8.80;99.90
14119;DHT22;7138;49.246;9.100;2023-04-03T14:02:20;9.00;99.90
14119;DHT22;7138;49.246;9.100;2023-04-03T14:04:51;8.50;99.90
14119;DHT22;7138;49.246;9.100;2023-04-03T14:07:22;7.60;99.90
14119;DHT22;7138;49.246;9.100;2023-04-03T14:09:50;7.30;99.90
14119;DHT22;7138;49.246;9.100;2023-04-03T14:12:18;7.40;99.90
14119;DHT22;7138;49.246;9.100;2023-04-03T14:14:51;8.10;99.90
14119;DHT22;7138;49.246;9.100;2023-04-03T14:17:20;7.90;99.90
14119;DHT22;7138;49.246;9.100;2023-04-03T14:19:49;7.10;99.90
14119;DHT22;7138;49.246;9.100;2023-04-03T14:22:18;7.30;99.90
14119;DHT22;7138;49.246;9.100;2023-04-03T14:24:48;7.60;99.90
14119;DHT22;7138;49.246;9.100;2023-04-03T14:27:18;8.10;99.90
14119;DHT22;7138;49.246;9.100;2023-04-03T14:29:49;8.70;99.90
14119;DHT22;7138;49.246;9.100;2023-04-03T14:32:17;9.00;99.90
14119;DHT22;7138;49.246;9.100;2023-04-03T14:34:44;9.10;99.90
14119;DHT22;7138;49.246;9.100;2023-04-03T14:37:13;8.90;99.90
14119;DHT22;7138;49.246;9.100;2023-04-03T14:39:41;8.30;99.90
14119;DHT22;7138;49.246;9.100;2023-04-03T14:42:12;7.70;99.90
14119;DHT22;7138;49.246;9.100;2023-04-03T14:44:40;7.20;99.90
14119;DHT22;7138;49.246;9.100;2023-04-03T14:47:10;7.50;99.90
14119;DHT22;7138;49.246;9.100;2023-04-03T14:49:37;8.20;99.90
14119;DHT22;7138;49.246;9.100;2023-04-03T14:52:03;8.10;99.90
14119;DHT22;7138;49.246;9.100;2023-04-03T14:54:29;8.80;99.90
14119;DHT22;7138;49.246;9.100;2023-04-03T14:56:58;9.40;99.90
14119;DHT22;7138;49.246;9.100;2023-04-03T14:59:25;9.50;99.90
14119;DHT22;7138;49.246;9.100;2023-04-03T15:01:52;8.40;99.90
14119;DHT22;7138;49.246;9.100;2023-04-03T15:04:20;7.70;99.90
14119;DHT22;7138;49.246;9.100;2023-04-03T15:06:47;7.60;99.90
14119;DHT22;7138;49.246;9.100;2023-04-03T15:09:20;7.20;99.90
14119;DHT22;7138;49.246;9.100;2023-04-03T15:11:48;7.50;99.90
14119;DHT22;7138;49.246;9.100;2023-04-03T15:14:14;8.20;99.90
14119;DHT22;7138;49.246;9.100;2023-04-03T15:16:40;8.20;99.90
14119;DHT22;7138;49.246;9.100;2023-04-03T15:19:06;8.60;99.90
14119;DHT22;7138;49.246;9.100;2023-04-03T15:21:33;9.20;99.90
14119;DHT22;7138;49.246;9.100;2023-04-03T15:23:59;8.50;99.90
14119;DHT22;7138;49.246;9.100;2023-04-03T15:26:25;8.30;99.90
14119;DHT22;7138;49.246;9.100;2023-04-03T15:28:51;7.50;99.90
14119;DHT22;7138;49.246;9.100;2023-04-03T15:31:17;7.20;99.90
14119;DHT22;7138;49.246;9.100;2023-04-03T15:33:43;7.20;99.90
14119;DHT22;7138;49.246;9.100;2023-04-03T15:36:09;7.60;99.90
14119;DHT22;7138;49.246;9.100;2023-04-03T15:38:36;7.70;99.90
14119;DHT22;7138;49.246;9.100;2023-04-03T15:41:04;7.70;99.90
14119;DHT22;7138;49.246;9.100;2023-04-03T15:43:30;7.30;99.90
14119;DHT22;7138;49.246;9.100;2023-04-03T15:45:57;7.30;99.90
14119;DHT22;7138;49.246;9.100;2023-04-03T15:48:25;7.40;99.90
14119;DHT22;7138;49.246;9.100;2023-04-03T15:50:51;7.70;99.90
14119;DHT22;7138;49.246;9.100;2023-04-03T15:53:17;7.90;99.90
14119;DHT22;7138;49.246;9.100;2023-04-03T15:55:44;7.80;99.90
14119;DHT22;7138;49.246;9.100;2023-04-03T15:58:11;7.90;99.90
14119;DHT22;7138;49.246;9.100;2023-04-03T16:00:37;7.80;99.90
14119;DHT22;7138;49.246;9.100;2023-04-03T16:03:05;7.60;99.90
14119;DHT22;7138;49.246;9.100;2023-04-03T16:05:35;7.10;99.90
14119;DHT22;7138;49.246;9.100;2023-04-03T16:08:02;6.90;99.90
14119;DHT22;7138;49.246;9.100;2023-04-03T16:10:29;7.00;99.90
14119;DHT22;7138;49.246;9.100;2023-04-03T16:12:56;7.20;99.90
14119;DHT22;7138;49.246;9.100;2023-04-03T16:15:22;7.30;99.90
14119;DHT22;7138;49.246;9.100;2023-04-03T16:17:50;7.10;99.90
14119;DHT22;7138;49.246;9.100;2023-04-03T16:20:16;7.30;99.90
14119;DHT22;7138;49.246;9.100;2023-04-03T16:22:44;7.30;99.90
14119;DHT22;7138;49.246;9.100;2023-04-03T16:25:11;7.20;99.90
14119;DHT22;7138;49.246;9.100;2023-04-03T16:27:37;7.10;99.90
14119;DHT22;7138;49.246;9.100;2023-04-03T16:30:06;7.10;99.90
14119;DHT22;7138;49.246;9.100;2023-04-03T16:32:33;7.00;99.90